sensor_id;sensor_type;location;lat;lon;timestamp;P1;durP1;ratioP1;P2;durP2;ratioP2
16727;SDS011;8482;54.396;18.590;2023-03-01T05:07:54;11.60;;;5.03;;
16727;SDS011;8482;54.396;18.590;2023-03-01T05:10:22;11.90;;;5.23;;
16727;SDS011;8482;54.396;18.590;2023-03-01T05:12:51;10.57;;;5.50;;
16727;SDS011;8482;54.396;18.590;2023-03-01T05:15:18;11.67;;;5.37;;
16727;SDS011;8482;54.396;18.590;2023-03-01T05:17:46;12.90;;;5.97;;
16727;SDS011;8482;54.396;18.590;2023-03-01T05:20:14;13.00;;;5.07;;
16727;SDS011;8482;54.396;18.590;2023-03-01T05:22:40;11.50;;;5.47;;
16727;SDS011;8482;54.396;18.590;2023-03-01T05:25:05;13.37;;;5.70;;
16727;SDS011;8482;54.396;18.590;2023-03-01T05:27:32;11.30;;;5.10;;
16727;SDS011;8482;54.396;18.590;2023-03-01T05:29:58;11.40;;;5.80;;
16727;SDS011;8482;54.396;18.590;2023-03-01T05:32:38;11.83;;;5.90;;
16727;SDS011;8482;54.396;18.590;2023-03-01T05:35:06;12.87;;;5.73;;
16727;SDS011;8482;54.396;18.590;2023-03-01T05:37:32;12.47;;;5.70;;
16727;SDS011;8482;54.396;18.590;2023-03-01T05:39:58;10.73;;;5.30;;
16727;SDS011;8482;54.396;18.590;2023-03-01T05:42:23;13.23;;;5.57;;
16727;SDS011;8482;54.396;18.590;2023-03-01T05:44:49;11.97;;;5.60;;
16727;SDS011;8482;54.396;18.590;2023-03-01T05:47:15;11.53;;;5.70;;
16727;SDS011;8482;54.396;18.590;2023-03-01T05:49:41;13.20;;;5.73;;
16727;SDS011;8482;54.396;18.590;2023-03-01T05:52:07;11.13;;;5.30;;
16727;SDS011;8482;54.396;18.590;2023-03-01T05:54:33;11.07;;;5.73;;
16727;SDS011;8482;54.396;18.590;2023-03-01T05:56:59;12.67;;;6.30;;
16727;SDS011;8482;54.396;18.590;2023-03-01T05:59:24;13.17;;;6.47;;
16727;SDS011;8482;54.396;18.590;2023-03-01T06:01:50;11.50;;;5.40;;
16727;SDS011;8482;54.396;18.590;2023-03-01T06:04:16;12.60;;;6.30;;
16727;SDS011;8482;54.396;18.590;2023-03-01T06:06:42;12.17;;;6.13;;
16727;SDS011;8482;54.396;18.590;2023-03-01T06:09:08;13.07;;;6.10;;
16727;SDS011;8482;54.396;18.590;2023-03-01T06:11:35;12.27;;;5.27;;
16727;SDS011;8482;54.396;18.590;2023-03-01T06:14:02;12.07;;;5.70;;
16727;SDS011;8482;54.396;18.590;2023-03-01T06:16:29;12.23;;;5.73;;
16727;SDS011;8482;54.396;18.590;2023-03-01T06:18:54;12.63;;;5.23;;
16727;SDS011;8482;54.396;18.590;2023-03-01T06:21:20;11.73;;;5.00;;
16727;SDS011;8482;54.396;18.590;2023-03-01T06:23:46;12.97;;;5.70;;
16727;SDS011;8482;54.396;18.590;2023-03-01T06:26:12;12.27;;;5.77;;
16727;SDS011;8482;54.396;18.590;2023-03-01T06:28:38;9.67;;;5.17;;
16727;SDS011;8482;54.396;18.590;2023-03-01T06:31:03;10.23;;;4.53;;
16727;SDS011;8482;54.396;18.590;2023-03-01T06:33:33;9.43;;;4.87;;
16727;SDS011;8482;54.396;18.590;2023-03-01T06:35:59;10.50;;;5.60;;
16727;SDS011;8482;54.396;18.590;2023-03-01T06:38:25;11.53;;;5.37;;
16727;SDS011;8482;54.396;18.590;2023-03-01T06:40:51;10.90;;;5.23;;
16727;SDS011;8482;54.396;18.590;2023-03-01T06:43:19;11.57;;;5.67;;
16727;SDS011;8482;54.396;18.590;2023-03-01T06:45:45;12.03;;;5.97;;
16727;SDS011;8482;54.396;18.590;2023-03-01T06:48:11;12.73;;;5.70;;
16727;SDS011;8482;54.396;18.590;2023-03-01T06:50:37;12.73;;;5.63;;
16727;SDS011;8482;54.396;18.590;2023-03-01T06:53:03;11.37;;;5.27;;
16727;SDS011;8482;54.396;18.590;2023-03-01T06:55:29;12.87;;;6.40;;
16727;SDS011;8482;54.396;18.590;2023-03-01T06:57:59;10.07;;;4.53;;
16727;SDS011;8482;54.396;18.590;2023-03-01T07:00:28;9.37;;;4.80;;
16727;SDS011;8482;54.396;18.590;2023-03-01T07:02:57;9.87;;;4.80;;
16727;SDS011;8482;54.396;18.590;2023-03-01T07:05:26;9.07;;;4.60;;
16727;SDS011;8482;54.396;18.590;2023-03-01T07:07:53;11.03;;;4.90;;
16727;SDS011;8482;54.396;18.590;2023-03-01T07:10:20;10.43;;;4.57;;
16727;SDS011;8482;54.396;18.590;2023-03-01T07:12:46;10.80;;;4.87;;
16727;SDS011;8482;54.396;18.590;2023-03-01T07:15:12;10.87;;;5.17;;
16727;SDS011;8482;54.396;18.590;2023-03-01T07:17:39;11.30;;;5.10;;
16727;SDS011;8482;54.396;18.590;2023-03-01T07:20:05;10.27;;;4.90;;
16727;SDS011;8482;54.396;18.590;2023-03-01T07:22:32;11.77;;;4.80;;
16727;SDS011;8482;54.396;18.590;2023-03-01T07:24:57;10.30;;;5.13;;
16727;SDS011;8482;54.396;18.590;2023-03-01T07:27:23;10.60;;;5.20;;
16727;SDS011;8482;54.396;18.590;2023-03-01T07:29:49;10.73;;;4.43;;
16727;SDS011;8482;54.396;18.590;2023-03-01T07:32:16;10.17;;;4.47;;
16727;SDS011;8482;54.396;18.590;2023-03-01T07:34:41;11.50;;;5.40;;
16727;SDS011;8482;54.396;18.590;2023-03-01T07:37:07;11.37;;;5.00;;
16727;SDS011;8482;54.396;18.590;2023-03-01T07:39:33;10.93;;;5.70;;
16727;SDS011;8482;54.396;18.590;2023-03-01T07:41:59;10.63;;;5.50;;
16727;SDS011;8482;54.396;18.590;2023-03-01T07:44:25;10.23;;;4.93;;
16727;SDS011;8482;54.396;18.590;2023-03-01T07:46:50;9.83;;;4.50;;
16727;SDS011;8482;54.396;18.590;2023-03-01T07:49:21;10.47;;;5.27;;
16727;SDS011;8482;54.396;18.590;2023-03-01T07:51:47;9.97;;;4.60;;
16727;SDS011;8482;54.396;18.590;2023-03-01T07:54:13;10.57;;;4.97;;
16727;SDS011;8482;54.396;18.590;2023-03-01T07:56:38;11.27;;;5.13;;
16727;SDS011;8482;54.396;18.590;2023-03-01T07:59:05;11.20;;;5.37;;
16727;SDS011;8482;54.396;18.590;2023-03-01T08:01:31;10.83;;;5.10;;
16727;SDS011;8482;54.396;18.590;2023-03-01T08:03:57;9.93;;;4.57;;
16727;SDS011;8482;54.396;18.590;2023-03-01T08:06:23;10.63;;;5.43;;
16727;SDS011;8482;54.396;18.590;2023-03-01T08:08:48;10.90;;;5.10;;
16727;SDS011;8482;54.396;18.590;2023-03-01T08:11:14;9.40;;;4.77;;
16727;SDS011;8482;54.396;18.590;2023-03-01T08:13:41;10.23;;;4.37;;
16727;SDS011;8482;54.396;18.590;2023-03-01T08:16:12;11.13;;;4.73;;
16727;SDS011;8482;54.396;18.590;2023-03-01T08:18:40;11.40;;;4.83;;
16727;SDS011;8482;54.396;18.590;2023-03-01T08:21:08;10.43;;;4.97;;
16727;SDS011;8482;54.396;18.590;2023-03-01T08:23:37;10.80;;;5.27;;
16727;SDS011;8482;54.396;18.590;2023-03-01T08:26:04;10.03;;;4.90;;
16727;SDS011;8482;54.396;18.590;2023-03-01T08:28:31;10.87;;;5.50;;
16727;SDS011;8482;54.396;18.590;2023-03-01T08:30:57;9.27;;;4.53;;
16727;SDS011;8482;54.396;18.590;2023-03-01T08:33:23;10.63;;;5.17;;
16727;SDS011;8482;54.396;18.590;2023-03-01T08:35:48;10.00;;;4.47;;
16727;SDS011;8482;54.396;18.590;2023-03-01T08:38:14;9.43;;;4.53;;
16727;SDS011;8482;54.396;18.590;2023-03-01T08:40:40;9.43;;;4.47;;
16727;SDS011;8482;54.396;18.590;2023-03-01T08:43:06;10.40;;;5.20;;
16727;SDS011;8482;54.396;18.590;2023-03-01T08:45:32;9.00;;;4.67;;
16727;SDS011;8482;54.396;18.590;2023-03-01T08:47:58;11.07;;;5.07;;
16727;SDS011;8482;54.396;18.590;2023-03-01T08:50:23;11.50;;;4.87;;
16727;SDS011;8482;54.396;18.590;2023-03-01T08:52:49;10.77;;;5.20;;
16727;SDS011;8482;54.396;18.590;2023-03-01T08:55:16;10.07;;;4.67;;
16727;SDS011;8482;54.396;18.590;2023-03-01T08:57:42;9.63;;;5.10;;
16727;SDS011;8482;54.396;18.590;2023-03-01T09:00:09;9.33;;;5.53;;
16727;SDS011;8482;54.396;18.590;2023-03-01T09:02:36;9.70;;;4.63;;
16727;SDS011;8482;54.396;18.590;2023-03-01T09:05:03;9.30;;;4.80;;
16727;SDS011;8482;54.396;18.590;2023-03-01T09:07:29;12.27;;;5.07;;
16727;SDS011;8482;54.396;18.590;2023-03-01T09:09:55;9.80;;;5.30;;
16727;SDS011;8482;54.396;18.590;2023-03-01T09:12:21;9.27;;;5.00;;
16727;SDS011;8482;54.396;18.590;2023-03-01T09:14:47;9.80;;;4.93;;
16727;SDS011;8482;54.396;18.590;2023-03-01T09:17:13;11.27;;;5.53;;
16727;SDS011;8482;54.396;18.590;2023-03-01T09:19:39;10.43;;;5.20;;
16727;SDS011;8482;54.396;18.590;2023-03-01T09:22:04;10.30;;;5.30;;
16727;SDS011;8482;54.396;18.590;2023-03-01T09:24:30;10.80;;;4.80;;
16727;SDS011;8482;54.396;18.590;2023-03-01T09:26:56;9.80;;;5.00;;
16727;SDS011;8482;54.396;18.590;2023-03-01T09:29:22;8.83;;;4.47;;
16727;SDS011;8482;54.396;18.590;2023-03-01T09:31:49;7.97;;;4.40;;
16727;SDS011;8482;54.396;18.590;2023-03-01T09:34:14;9.00;;;4.37;;
16727;SDS011;8482;54.396;18.590;2023-03-01T09:36:44;10.13;;;4.97;;
16727;SDS011;8482;54.396;18.590;2023-03-01T09:39:10;8.97;;;4.43;;
16727;SDS011;8482;54.396;18.590;2023-03-01T09:41:44;10.70;;;5.57;;
16727;SDS011;8482;54.396;18.590;2023-03-01T09:47:16;9.48;;;4.60;;
16727;SDS011;8482;54.396;18.590;2023-03-01T09:52:50;8.50;;;4.20;;
16727;SDS011;8482;54.396;18.590;2023-03-01T10:01:10;9.60;;;4.70;;
16727;SDS011;8482;54.396;18.590;2023-03-01T10:03:59;9.13;;;4.60;;
16727;SDS011;8482;54.396;18.590;2023-03-01T10:06:35;9.13;;;4.43;;
16727;SDS011;8482;54.396;18.590;2023-03-01T10:09:05;8.20;;;4.47;;
16727;SDS011;8482;54.396;18.590;2023-03-01T10:11:54;11.07;;;5.13;;
16727;SDS011;8482;54.396;18.590;2023-03-01T10:19:51;10.07;;;4.97;;
16727;SDS011;8482;54.396;18.590;2023-03-01T10:22:27;11.18;;;6.07;;
16727;SDS011;8482;54.396;18.590;2023-03-01T10:24:57;9.13;;;4.60;;
16727;SDS011;8482;54.396;18.590;2023-03-01T10:27:39;9.53;;;4.57;;
16727;SDS011;8482;54.396;18.590;2023-03-01T10:30:37;8.73;;;4.80;;
16727;SDS011;8482;54.396;18.590;2023-03-01T10:33:14;9.18;;;4.32;;
16727;SDS011;8482;54.396;18.590;2023-03-01T10:35:52;11.23;;;5.22;;
16727;SDS011;8482;54.396;18.590;2023-03-01T10:38:19;11.52;;;5.72;;
16727;SDS011;8482;54.396;18.590;2023-03-01T10:46:30;11.98;;;5.80;;
16727;SDS011;8482;54.396;18.590;2023-03-01T10:49:10;12.48;;;5.97;;
16727;SDS011;8482;54.396;18.590;2023-03-01T10:51:51;11.25;;;5.10;;
16727;SDS011;8482;54.396;18.590;2023-03-01T10:54:20;10.93;;;6.43;;
16727;SDS011;8482;54.396;18.590;2023-03-01T10:57:10;11.50;;;5.82;;
16727;SDS011;8482;54.396;18.590;2023-03-01T11:00:17;11.13;;;6.70;;
16727;SDS011;8482;54.396;18.590;2023-03-01T11:02:46;10.80;;;6.20;;
16727;SDS011;8482;54.396;18.590;2023-03-01T11:05:28;10.63;;;5.47;;
16727;SDS011;8482;54.396;18.590;2023-03-01T11:07:56;10.25;;;5.53;;
16727;SDS011;8482;54.396;18.590;2023-03-01T11:10:31;9.65;;;4.78;;
16727;SDS011;8482;54.396;18.590;2023-03-01T11:13:07;11.68;;;5.72;;
16727;SDS011;8482;54.396;18.590;2023-03-01T11:15:41;10.18;;;4.78;;
16727;SDS011;8482;54.396;18.590;2023-03-01T11:18:23;9.15;;;4.80;;
16727;SDS011;8482;54.396;18.590;2023-03-01T11:20:50;9.18;;;4.97;;
16727;SDS011;8482;54.396;18.590;2023-03-01T11:23:20;10.93;;;5.45;;
16727;SDS011;8482;54.396;18.590;2023-03-01T11:25:49;9.55;;;5.18;;
16727;SDS011;8482;54.396;18.590;2023-03-01T11:28:23;10.63;;;5.63;;
16727;SDS011;8482;54.396;18.590;2023-03-01T11:30:55;11.02;;;5.93;;
16727;SDS011;8482;54.396;18.590;2023-03-01T11:43:01;10.50;;;5.82;;
16727;SDS011;8482;54.396;18.590;2023-03-01T11:48:28;10.88;;;5.70;;
16727;SDS011;8482;54.396;18.590;2023-03-01T11:51:09;12.23;;;5.80;;
16727;SDS011;8482;54.396;18.590;2023-03-01T11:53:56;12.18;;;5.45;;
16727;SDS011;8482;54.396;18.590;2023-03-01T11:59:58;9.63;;;4.93;;
16727;SDS011;8482;54.396;18.590;2023-03-01T12:09:02;11.60;;;5.00;;
16727;SDS011;8482;54.396;18.590;2023-03-01T12:23:55;11.82;;;5.70;;
16727;SDS011;8482;54.396;18.590;2023-03-01T12:29:08;8.95;;;4.72;;
16727;SDS011;8482;54.396;18.590;2023-03-01T12:40:53;9.38;;;4.68;;
16727;SDS011;8482;54.396;18.590;2023-03-01T12:50:21;10.38;;;5.13;;
16727;SDS011;8482;54.396;18.590;2023-03-01T12:52:55;8.57;;;4.95;;
16727;SDS011;8482;54.396;18.590;2023-03-01T12:58:07;11.30;;;5.60;;
16727;SDS011;8482;54.396;18.590;2023-03-01T13:15:51;9.13;;;4.68;;
16727;SDS011;8482;54.396;18.590;2023-03-01T13:20:48;8.68;;;4.28;;
16727;SDS011;8482;54.396;18.590;2023-03-01T13:23:27;9.93;;;4.40;;
16727;SDS011;8482;54.396;18.590;2023-03-01T13:28:40;10.82;;;5.47;;
16727;SDS011;8482;54.396;18.590;2023-03-01T13:31:55;8.90;;;4.50;;
16727;SDS011;8482;54.396;18.590;2023-03-01T13:33:59;7.65;;;4.15;;
16727;SDS011;8482;54.396;18.590;2023-03-01T13:41:54;9.93;;;5.20;;
16727;SDS011;8482;54.396;18.590;2023-03-01T13:46:59;9.95;;;5.75;;
16727;SDS011;8482;54.396;18.590;2023-03-01T13:57:42;9.35;;;5.72;;
16727;SDS011;8482;54.396;18.590;2023-03-01T14:00:29;11.15;;;6.10;;
16727;SDS011;8482;54.396;18.590;2023-03-01T14:05:36;9.77;;;6.35;;
16727;SDS011;8482;54.396;18.590;2023-03-01T14:08:04;10.52;;;6.45;;
16727;SDS011;8482;54.396;18.590;2023-03-01T14:10:52;10.02;;;5.97;;
16727;SDS011;8482;54.396;18.590;2023-03-01T14:13:38;10.65;;;6.80;;
16727;SDS011;8482;54.396;18.590;2023-03-01T14:19:17;10.00;;;6.53;;
16727;SDS011;8482;54.396;18.590;2023-03-01T14:24:48;11.18;;;7.05;;
16727;SDS011;8482;54.396;18.590;2023-03-01T14:27:20;12.05;;;7.55;;
16727;SDS011;8482;54.396;18.590;2023-03-01T14:29:57;10.23;;;6.35;;
16727;SDS011;8482;54.396;18.590;2023-03-01T14:32:28;10.90;;;7.13;;
16727;SDS011;8482;54.396;18.590;2023-03-01T14:34:57;10.85;;;6.50;;
16727;SDS011;8482;54.396;18.590;2023-03-01T14:39:57;11.23;;;6.70;;
16727;SDS011;8482;54.396;18.590;2023-03-01T14:42:28;14.27;;;7.32;;
16727;SDS011;8482;54.396;18.590;2023-03-01T14:45:01;11.07;;;7.28;;
16727;SDS011;8482;54.396;18.590;2023-03-01T14:47:32;13.02;;;7.25;;
16727;SDS011;8482;54.396;18.590;2023-03-01T14:52:47;10.68;;;6.82;;
16727;SDS011;8482;54.396;18.590;2023-03-01T14:55:30;12.85;;;6.88;;
16727;SDS011;8482;54.396;18.590;2023-03-01T14:58:05;9.68;;;6.95;;
16727;SDS011;8482;54.396;18.590;2023-03-01T15:00:45;12.05;;;6.68;;
16727;SDS011;8482;54.396;18.590;2023-03-01T15:06:11;9.98;;;6.75;;
16727;SDS011;8482;54.396;18.590;2023-03-01T15:08:45;11.02;;;7.20;;
16727;SDS011;8482;54.396;18.590;2023-03-01T15:13:52;8.85;;;5.70;;
16727;SDS011;8482;54.396;18.590;2023-03-01T15:16:21;9.95;;;5.70;;
16727;SDS011;8482;54.396;18.590;2023-03-01T15:18:56;10.27;;;6.22;;
16727;SDS011;8482;54.396;18.590;2023-03-01T15:21:35;10.65;;;6.50;;
16727;SDS011;8482;54.396;18.590;2023-03-01T15:26:55;8.57;;;5.55;;
16727;SDS011;8482;54.396;18.590;2023-03-01T15:29:27;13.00;;;6.53;;
16727;SDS011;8482;54.396;18.590;2023-03-01T15:31:57;10.80;;;5.90;;
16727;SDS011;8482;54.396;18.590;2023-03-01T15:34:48;11.88;;;6.22;;
16727;SDS011;8482;54.396;18.590;2023-03-01T15:40:29;11.32;;;5.40;;
16727;SDS011;8482;54.396;18.590;2023-03-01T15:42:59;9.85;;;4.65;;
16727;SDS011;8482;54.396;18.590;2023-03-01T15:45:27;9.45;;;5.32;;
16727;SDS011;8482;54.396;18.590;2023-03-01T15:47:56;11.07;;;5.68;;
16727;SDS011;8482;54.396;18.590;2023-03-01T15:50:29;11.35;;;5.82;;
16727;SDS011;8482;54.396;18.590;2023-03-01T15:52:58;10.50;;;5.60;;
16727;SDS011;8482;54.396;18.590;2023-03-01T15:55:30;11.98;;;5.53;;
16727;SDS011;8482;54.396;18.590;2023-03-01T15:57:59;11.05;;;5.38;;
16727;SDS011;8482;54.396;18.590;2023-03-01T16:00:31;10.43;;;5.22;;
16727;SDS011;8482;54.396;18.590;2023-03-01T16:02:58;7.13;;;4.47;;
16727;SDS011;8482;54.396;18.590;2023-03-01T16:05:25;7.43;;;3.70;;
16727;SDS011;8482;54.396;18.590;2023-03-01T16:07:52;7.75;;;3.05;;
16727;SDS011;8482;54.396;18.590;2023-03-01T16:10:19;7.18;;;2.95;;
16727;SDS011;8482;54.396;18.590;2023-03-01T16:12:45;5.38;;;2.33;;
16727;SDS011;8482;54.396;18.590;2023-03-01T16:15:19;5.20;;;2.05;;
16727;SDS011;8482;54.396;18.590;2023-03-01T16:17:52;4.28;;;2.05;;
16727;SDS011;8482;54.396;18.590;2023-03-01T16:20:23;5.47;;;2.25;;
16727;SDS011;8482;54.396;18.590;2023-03-01T16:22:51;4.68;;;1.83;;
16727;SDS011;8482;54.396;18.590;2023-03-01T16:25:18;4.05;;;1.70;;
16727;SDS011;8482;54.396;18.590;2023-03-01T16:27:46;2.60;;;1.48;;
16727;SDS011;8482;54.396;18.590;2023-03-01T16:30:18;4.50;;;1.88;;
16727;SDS011;8482;54.396;18.590;2023-03-01T16:32:47;3.25;;;1.60;;
16727;SDS011;8482;54.396;18.590;2023-03-01T16:35:15;4.88;;;1.95;;
16727;SDS011;8482;54.396;18.590;2023-03-01T16:37:44;5.65;;;2.00;;
16727;SDS011;8482;54.396;18.590;2023-03-01T16:40:17;4.65;;;2.58;;
16727;SDS011;8482;54.396;18.590;2023-03-01T16:42:46;2.97;;;1.70;;
16727;SDS011;8482;54.396;18.590;2023-03-01T16:45:15;2.45;;;1.40;;
16727;SDS011;8482;54.396;18.590;2023-03-01T16:47:41;4.75;;;1.73;;
16727;SDS011;8482;54.396;18.590;2023-03-01T16:50:07;3.05;;;1.73;;
16727;SDS011;8482;54.396;18.590;2023-03-01T16:52:34;3.13;;;1.55;;
16727;SDS011;8482;54.396;18.590;2023-03-01T16:55:00;2.78;;;1.60;;
16727;SDS011;8482;54.396;18.590;2023-03-01T16:57:29;4.05;;;2.47;;
16727;SDS011;8482;54.396;18.590;2023-03-01T16:59:55;4.72;;;1.70;;
16727;SDS011;8482;54.396;18.590;2023-03-01T17:02:21;5.93;;;2.38;;
16727;SDS011;8482;54.396;18.590;2023-03-01T17:04:54;3.47;;;1.85;;
16727;SDS011;8482;54.396;18.590;2023-03-01T17:07:20;4.57;;;2.35;;
16727;SDS011;8482;54.396;18.590;2023-03-01T17:09:47;4.97;;;2.08;;
16727;SDS011;8482;54.396;18.590;2023-03-01T17:12:13;3.95;;;2.20;;
16727;SDS011;8482;54.396;18.590;2023-03-01T17:14:41;3.60;;;1.95;;
16727;SDS011;8482;54.396;18.590;2023-03-01T17:17:08;4.47;;;2.13;;
16727;SDS011;8482;54.396;18.590;2023-03-01T17:19:35;5.20;;;2.08;;
16727;SDS011;8482;54.396;18.590;2023-03-01T17:22:06;3.47;;;1.75;;
16727;SDS011;8482;54.396;18.590;2023-03-01T17:24:33;6.18;;;2.45;;
16727;SDS011;8482;54.396;18.590;2023-03-01T17:27:01;6.30;;;2.70;;
16727;SDS011;8482;54.396;18.590;2023-03-01T17:29:27;5.75;;;2.70;;
16727;SDS011;8482;54.396;18.590;2023-03-01T17:31:53;5.55;;;2.88;;
16727;SDS011;8482;54.396;18.590;2023-03-01T17:34:20;5.68;;;2.58;;
16727;SDS011;8482;54.396;18.590;2023-03-01T17:36:48;5.95;;;2.90;;
16727;SDS011;8482;54.396;18.590;2023-03-01T17:39:16;6.07;;;3.00;;
16727;SDS011;8482;54.396;18.590;2023-03-01T17:41:50;5.95;;;2.97;;
16727;SDS011;8482;54.396;18.590;2023-03-01T17:44:17;7.18;;;3.15;;
16727;SDS011;8482;54.396;18.590;2023-03-01T17:46:42;6.45;;;3.28;;
16727;SDS011;8482;54.396;18.590;2023-03-01T17:49:08;7.95;;;3.65;;
16727;SDS011;8482;54.396;18.590;2023-03-01T17:51:34;7.90;;;3.33;;
16727;SDS011;8482;54.396;18.590;2023-03-01T17:54:00;6.10;;;2.78;;
16727;SDS011;8482;54.396;18.590;2023-03-01T17:56:26;6.03;;;3.08;;
16727;SDS011;8482;54.396;18.590;2023-03-01T17:58:53;6.60;;;3.25;;
16727;SDS011;8482;54.396;18.590;2023-03-01T18:01:20;9.02;;;3.88;;
16727;SDS011;8482;54.396;18.590;2023-03-01T18:03:49;9.73;;;3.78;;
16727;SDS011;8482;54.396;18.590;2023-03-01T18:06:21;7.82;;;3.92;;
16727;SDS011;8482;54.396;18.590;2023-03-01T18:08:50;6.93;;;3.80;;
16727;SDS011;8482;54.396;18.590;2023-03-01T18:11:19;6.30;;;3.30;;
16727;SDS011;8482;54.396;18.590;2023-03-01T18:13:48;5.57;;;2.83;;
16727;SDS011;8482;54.396;18.590;2023-03-01T18:16:16;7.25;;;3.17;;
16727;SDS011;8482;54.396;18.590;2023-03-01T18:18:44;6.03;;;3.10;;
16727;SDS011;8482;54.396;18.590;2023-03-01T18:21:11;5.32;;;3.15;;
16727;SDS011;8482;54.396;18.590;2023-03-01T18:23:38;6.17;;;2.93;;
16727;SDS011;8482;54.396;18.590;2023-03-01T18:26:06;4.80;;;2.80;;
16727;SDS011;8482;54.396;18.590;2023-03-01T18:28:36;5.95;;;2.92;;
16727;SDS011;8482;54.396;18.590;2023-03-01T18:31:05;6.32;;;3.15;;
16727;SDS011;8482;54.396;18.590;2023-03-01T18:33:35;6.38;;;3.20;;
16727;SDS011;8482;54.396;18.590;2023-03-01T18:36:02;6.13;;;2.90;;
16727;SDS011;8482;54.396;18.590;2023-03-01T18:38:30;7.40;;;3.50;;
16727;SDS011;8482;54.396;18.590;2023-03-01T18:40:57;6.30;;;3.60;;
16727;SDS011;8482;54.396;18.590;2023-03-01T18:43:23;6.13;;;3.08;;
16727;SDS011;8482;54.396;18.590;2023-03-01T18:45:56;7.53;;;3.50;;
16727;SDS011;8482;54.396;18.590;2023-03-01T18:48:23;7.45;;;3.17;;
16727;SDS011;8482;54.396;18.590;2023-03-01T18:50:49;6.32;;;2.90;;
16727;SDS011;8482;54.396;18.590;2023-03-01T18:53:15;4.88;;;2.67;;
16727;SDS011;8482;54.396;18.590;2023-03-01T18:55:41;4.90;;;2.72;;
16727;SDS011;8482;54.396;18.590;2023-03-01T18:58:06;7.35;;;2.78;;
16727;SDS011;8482;54.396;18.590;2023-03-01T19:00:32;7.90;;;3.03;;
16727;SDS011;8482;54.396;18.590;2023-03-01T19:02:58;6.05;;;2.83;;
16727;SDS011;8482;54.396;18.590;2023-03-01T19:05:26;4.68;;;2.97;;
16727;SDS011;8482;54.396;18.590;2023-03-01T19:07:53;5.55;;;2.83;;
16727;SDS011;8482;54.396;18.590;2023-03-01T19:10:19;5.83;;;2.80;;
16727;SDS011;8482;54.396;18.590;2023-03-01T19:12:45;5.78;;;2.65;;
16727;SDS011;8482;54.396;18.590;2023-03-01T19:15:11;9.30;;;4.13;;
16727;SDS011;8482;54.396;18.590;2023-03-01T19:17:40;7.70;;;2.78;;
16727;SDS011;8482;54.396;18.590;2023-03-01T19:20:09;4.93;;;2.00;;
16727;SDS011;8482;54.396;18.590;2023-03-01T19:22:36;3.97;;;2.03;;
16727;SDS011;8482;54.396;18.590;2023-03-01T19:25:03;4.87;;;1.90;;
16727;SDS011;8482;54.396;18.590;2023-03-01T19:27:29;5.03;;;2.80;;
16727;SDS011;8482;54.396;18.590;2023-03-01T19:29:55;5.38;;;1.95;;
16727;SDS011;8482;54.396;18.590;2023-03-01T19:32:21;5.05;;;2.05;;
16727;SDS011;8482;54.396;18.590;2023-03-01T19:34:47;5.53;;;2.30;;
16727;SDS011;8482;54.396;18.590;2023-03-01T19:37:12;5.28;;;2.33;;
16727;SDS011;8482;54.396;18.590;2023-03-01T19:39:40;6.00;;;2.60;;
16727;SDS011;8482;54.396;18.590;2023-03-01T19:42:07;8.10;;;2.97;;
16727;SDS011;8482;54.396;18.590;2023-03-01T19:44:34;5.90;;;2.97;;
16727;SDS011;8482;54.396;18.590;2023-03-01T19:47:00;8.07;;;3.63;;
16727;SDS011;8482;54.396;18.590;2023-03-01T19:49:26;7.00;;;2.83;;
16727;SDS011;8482;54.396;18.590;2023-03-01T19:51:53;5.20;;;2.58;;
16727;SDS011;8482;54.396;18.590;2023-03-01T19:54:19;7.10;;;3.27;;
16727;SDS011;8482;54.396;18.590;2023-03-01T19:56:47;8.30;;;3.33;;
16727;SDS011;8482;54.396;18.590;2023-03-01T19:59:14;8.37;;;3.80;;
16727;SDS011;8482;54.396;18.590;2023-03-01T20:01:43;6.00;;;3.10;;
16727;SDS011;8482;54.396;18.590;2023-03-01T20:04:09;7.57;;;2.67;;
16727;SDS011;8482;54.396;18.590;2023-03-01T20:06:37;5.88;;;3.08;;
16727;SDS011;8482;54.396;18.590;2023-03-01T20:09:04;5.97;;;2.43;;
16727;SDS011;8482;54.396;18.590;2023-03-01T20:11:32;6.47;;;2.87;;
16727;SDS011;8482;54.396;18.590;2023-03-01T20:13:58;6.40;;;2.80;;
16727;SDS011;8482;54.396;18.590;2023-03-01T20:16:25;7.20;;;2.80;;
16727;SDS011;8482;54.396;18.590;2023-03-01T20:18:51;6.43;;;2.70;;
16727;SDS011;8482;54.396;18.590;2023-03-01T20:21:18;5.27;;;2.40;;
16727;SDS011;8482;54.396;18.590;2023-03-01T20:23:45;7.83;;;2.83;;
16727;SDS011;8482;54.396;18.590;2023-03-01T20:26:12;8.10;;;3.77;;
16727;SDS011;8482;54.396;18.590;2023-03-01T20:28:40;8.93;;;3.30;;
16727;SDS011;8482;54.396;18.590;2023-03-01T20:31:10;8.97;;;3.10;;
16727;SDS011;8482;54.396;18.590;2023-03-01T20:33:39;9.47;;;2.90;;
16727;SDS011;8482;54.396;18.590;2023-03-01T20:36:05;7.27;;;2.90;;
16727;SDS011;8482;54.396;18.590;2023-03-01T20:38:33;8.80;;;3.87;;
16727;SDS011;8482;54.396;18.590;2023-03-01T20:41:04;8.17;;;3.37;;
16727;SDS011;8482;54.396;18.590;2023-03-01T20:43:33;8.30;;;4.60;;
16727;SDS011;8482;54.396;18.590;2023-03-01T20:46:07;9.30;;;3.80;;
16727;SDS011;8482;54.396;18.590;2023-03-01T20:48:36;8.80;;;4.17;;
16727;SDS011;8482;54.396;18.590;2023-03-01T20:51:07;10.03;;;4.90;;
16727;SDS011;8482;54.396;18.590;2023-03-01T20:53:35;7.37;;;3.60;;
16727;SDS011;8482;54.396;18.590;2023-03-01T20:56:05;8.30;;;3.70;;
16727;SDS011;8482;54.396;18.590;2023-03-01T20:58:37;9.23;;;3.63;;
16727;SDS011;8482;54.396;18.590;2023-03-01T21:01:05;7.87;;;3.50;;
16727;SDS011;8482;54.396;18.590;2023-03-01T21:03:32;10.17;;;3.90;;
16727;SDS011;8482;54.396;18.590;2023-03-01T21:06:00;9.95;;;4.05;;
16727;SDS011;8482;54.396;18.590;2023-03-01T21:08:30;8.97;;;4.03;;
16727;SDS011;8482;54.396;18.590;2023-03-01T21:10:57;8.87;;;3.70;;
16727;SDS011;8482;54.396;18.590;2023-03-01T21:13:23;10.47;;;4.00;;
16727;SDS011;8482;54.396;18.590;2023-03-01T21:15:51;9.27;;;3.70;;
16727;SDS011;8482;54.396;18.590;2023-03-01T21:18:27;9.77;;;4.23;;
16727;SDS011;8482;54.396;18.590;2023-03-01T21:20:58;9.27;;;4.07;;
16727;SDS011;8482;54.396;18.590;2023-03-01T21:23:30;7.23;;;3.07;;
16727;SDS011;8482;54.396;18.590;2023-03-01T21:26:08;6.53;;;2.80;;
16727;SDS011;8482;54.396;18.590;2023-03-01T21:28:46;6.43;;;2.77;;
16727;SDS011;8482;54.396;18.590;2023-03-01T21:31:15;8.03;;;3.07;;
16727;SDS011;8482;54.396;18.590;2023-03-01T21:33:47;5.23;;;2.50;;
16727;SDS011;8482;54.396;18.590;2023-03-01T21:36:16;6.60;;;2.43;;
16727;SDS011;8482;54.396;18.590;2023-03-01T21:38:44;6.30;;;2.50;;
16727;SDS011;8482;54.396;18.590;2023-03-01T21:41:13;5.40;;;2.70;;
16727;SDS011;8482;54.396;18.590;2023-03-01T21:43:46;5.93;;;2.40;;
16727;SDS011;8482;54.396;18.590;2023-03-01T21:46:15;7.73;;;2.37;;
16727;SDS011;8482;54.396;18.590;2023-03-01T21:48:45;7.40;;;2.33;;
16727;SDS011;8482;54.396;18.590;2023-03-01T21:51:14;7.60;;;2.20;;
16727;SDS011;8482;54.396;18.590;2023-03-01T21:53:45;5.03;;;1.90;;
16727;SDS011;8482;54.396;18.590;2023-03-01T21:56:16;6.73;;;2.57;;
16727;SDS011;8482;54.396;18.590;2023-03-01T21:58:56;6.53;;;2.60;;
16727;SDS011;8482;54.396;18.590;2023-03-01T22:01:23;6.90;;;2.73;;
16727;SDS011;8482;54.396;18.590;2023-03-01T22:03:51;7.40;;;2.23;;
16727;SDS011;8482;54.396;18.590;2023-03-01T22:06:23;5.60;;;2.33;;
16727;SDS011;8482;54.396;18.590;2023-03-01T22:09:01;5.77;;;1.97;;
16727;SDS011;8482;54.396;18.590;2023-03-01T22:11:44;7.57;;;2.43;;
16727;SDS011;8482;54.396;18.590;2023-03-01T22:14:16;5.93;;;2.20;;
16727;SDS011;8482;54.396;18.590;2023-03-01T22:16:42;9.07;;;3.13;;
16727;SDS011;8482;54.396;18.590;2023-03-01T22:19:17;7.00;;;2.60;;
16727;SDS011;8482;54.396;18.590;2023-03-01T22:21:44;6.60;;;2.40;;
16727;SDS011;8482;54.396;18.590;2023-03-01T22:24:13;8.07;;;2.47;;